Time;durP1;ratioP1;P1;durP2;ratioP2;P2;SDS_P1;SDS_P2;PMS_P1;PMS_P2;Temp;Humidity;BMP_temperature;BMP_pressure;BME280_temperature;BME280_humidity;BME280_pressure;Samples;Min_cycle;Max_cycle;Signal;HPM_P1;HPM_P2
2022/09/24 00:00:30;;;;;;;0.50;0.50;;;14.00;99.90;;;;;;5003106;28;20055;-80
2022/09/24 00:02:56;;;;;;;0.50;0.50;;;14.00;99.90;;;;;;5008379;27;20448;-80
2022/09/24 00:05:22;;;;;;;0.50;0.50;;;14.00;99.90;;;;;;5002556;28;20434;-80
2022/09/24 00:07:48;;;;;;;0.43;0.43;;;14.00;99.90;;;;;;5007343;28;20357;-81
2022/09/24 00:10:13;;;;;;;0.50;0.50;;;14.00;99.90;;;;;;5004815;27;20571;-81
2022/09/24 00:12:40;;;;;;;0.50;0.50;;;14.00;99.90;;;;;;5002570;28;20300;-81
2022/09/24 00:15:07;;;;;;;0.40;0.40;;;14.00;99.90;;;;;;5014912;27;20107;-82
2022/09/24 00:17:33;;;;;;;0.50;0.50;;;14.10;99.90;;;;;;5003394;28;20047;-81
2022/09/24 00:19:59;;;;;;;0.50;0.50;;;14.10;99.90;;;;;;5002106;28;20407;-81
2022/09/24 00:22:24;;;;;;;0.50;0.50;;;14.10;99.90;;;;;;5004210;27;20800;-81
2022/09/24 00:27:34;;;;;;;0.50;0.50;;;14.10;99.90;;;;;;5004867;28;20044;-80
2022/09/24 00:30:00;;;;;;;0.50;0.50;;;14.10;99.90;;;;;;5001095;27;20372;-81
2022/09/24 00:32:26;;;;;;;0.50;0.50;;;14.10;99.90;;;;;;4999016;27;20047;-81
2022/09/24 00:34:53;;;;;;;0.50;0.50;;;14.10;99.90;;;;;;4997562;28;20109;-81
2022/09/24 00:37:19;;;;;;;0.40;0.40;;;14.10;99.90;;;;;;5004912;28;20066;-80
2022/09/24 00:39:45;;;;;;;0.47;0.47;;;14.00;99.90;;;;;;5004240;28;20539;-80
2022/09/24 00:42:12;;;;;;;0.50;0.50;;;14.10;99.90;;;;;;4972317;28;20048;-81
2022/09/24 00:44:53;;;;;;;0.40;0.40;;;14.00;99.90;;;;;;5020480;27;20560;-81
2022/09/24 00:47:18;;;;;;;0.50;0.50;;;14.00;99.90;;;;;;5015225;27;20409;-80
2022/09/24 00:49:47;;;;;;;0.50;0.50;;;14.00;99.90;;;;;;5007047;27;20373;-80
2022/09/24 00:52:14;;;;;;;0.50;0.50;;;14.00;99.90;;;;;;5032881;27;20695;-81
2022/09/24 00:54:44;;;;;;;0.50;0.50;;;14.00;99.90;;;;;;5028561;27;20518;-80
2022/09/24 00:57:11;;;;;;;0.50;0.50;;;14.00;99.90;;;;;;5008783;27;20707;-81
2022/09/24 00:59:38;;;;;;;0.40;0.40;;;14.00;99.90;;;;;;5008597;27;20047;-81
2022/09/24 01:02:04;;;;;;;0.50;0.50;;;14.00;99.90;;;;;;5027111;27;20096;-80
2022/09/24 01:04:30;;;;;;;0.40;0.40;;;13.90;99.90;;;;;;5011351;27;20048;-81
2022/09/24 01:06:56;;;;;;;0.40;0.40;;;14.00;99.90;;;;;;5024769;27;20243;-81
2022/09/24 01:09:24;;;;;;;0.40;0.40;;;14.00;99.90;;;;;;5012825;27;20078;-81
2022/09/24 01:12:03;;;;;;;0.50;0.50;;;14.00;99.90;;;;;;5028468;27;20108;-81
2022/09/24 01:15:07;;;;;;;0.50;0.50;;;14.00;99.90;;;;;;5010546;27;21148;-81
2022/09/24 01:18:00;;;;;;;0.40;0.40;;;14.00;99.90;;;;;;5028542;27;20211;-80
2022/09/24 01:20:44;;;;;;;0.40;0.40;;;14.00;99.90;;;;;;5007595;27;20060;-80
2022/09/24 01:23:34;;;;;;;0.50;0.50;;;14.00;99.90;;;;;;5021868;27;20054;-80
2022/09/24 01:26:31;;;;;;;0.45;0.45;;;14.00;99.90;;;;;;5025201;27;20039;-81
2022/09/24 01:29:22;;;;;;;0.50;0.50;;;14.00;99.90;;;;;;5032765;27;20074;-81
2022/09/24 01:32:04;;;;;;;0.40;0.40;;;14.00;99.90;;;;;;5024045;27;20509;-81
2022/09/24 01:34:39;;;;;;;0.40;0.40;;;14.00;99.90;;;;;;5026862;27;20301;-80
2022/09/24 01:37:06;;;;;;;0.40;0.40;;;14.00;99.90;;;;;;5024420;27;20543;-81
2022/09/24 01:39:34;;;;;;;0.50;0.50;;;14.00;99.90;;;;;;5021100;27;20384;-81
2022/09/24 01:42:00;;;;;;;0.50;0.50;;;14.00;99.90;;;;;;5018797;27;20039;-81
2022/09/24 01:44:27;;;;;;;0.50;0.50;;;14.00;99.90;;;;;;5028763;27;20087;-81
2022/09/24 01:46:53;;;;;;;0.50;0.50;;;14.00;99.90;;;;;;5027467;27;20066;-80
2022/09/24 01:49:19;;;;;;;0.50;0.50;;;13.90;99.90;;;;;;5013861;27;20039;-80
2022/09/24 01:51:57;;;;;;;0.50;0.50;;;14.00;99.90;;;;;;5007457;27;20416;-80
2022/09/24 01:54:33;;;;;;;0.43;0.43;;;14.00;99.90;;;;;;5010156;27;20533;-81
2022/09/24 01:57:22;;;;;;;0.47;0.47;;;14.00;99.90;;;;;;5029059;27;20107;-81
2022/09/24 02:00:08;;;;;;;0.40;0.40;;;13.90;99.90;;;;;;5013518;27;20595;-81
2022/09/24 02:02:41;;;;;;;0.50;0.50;;;13.90;99.90;;;;;;5004690;28;20887;-81
2022/09/24 02:05:15;;;;;;;0.50;0.50;;;13.90;99.90;;;;;;5013923;27;20192;-80
2022/09/24 02:08:10;;;;;;;0.40;0.40;;;13.90;99.90;;;;;;5028822;27;20664;-80
2022/09/24 02:10:47;;;;;;;0.40;0.40;;;13.90;99.90;;;;;;5030905;27;20123;-81
2022/09/24 02:13:16;;;;;;;0.50;0.50;;;13.90;99.90;;;;;;5031013;27;20097;-82
2022/09/24 02:15:48;;;;;;;0.50;0.50;;;13.90;99.90;;;;;;5013131;27;20591;-81
2022/09/24 02:18:18;;;;;;;0.50;0.50;;;13.90;99.90;;;;;;5012480;27;20744;-80
2022/09/24 02:20:44;;;;;;;0.50;0.50;;;13.90;99.90;;;;;;5026995;27;20126;-80
2022/09/24 02:23:14;;;;;;;0.50;0.50;;;13.90;99.90;;;;;;5026978;27;20054;-80
2022/09/24 02:25:56;;;;;;;0.50;0.50;;;13.90;99.90;;;;;;5004764;27;20096;-81
2022/09/24 02:28:23;;;;;;;0.50;0.50;;;13.80;99.90;;;;;;5035108;27;21054;-81
2022/09/24 02:30:56;;;;;;;0.50;0.50;;;13.80;99.90;;;;;;4997305;27;20082;-82
2022/09/24 02:36:10;;;;;;;0.50;0.50;;;13.80;99.90;;;;;;5010096;27;20116;-82
2022/09/24 02:38:38;;;;;;;0.40;0.40;;;13.80;99.90;;;;;;5025687;27;20051;-82
2022/09/24 02:41:06;;;;;;;0.50;0.50;;;13.80;99.90;;;;;;5019120;27;21068;-81
2022/09/24 02:43:34;;;;;;;0.40;0.40;;;13.80;99.90;;;;;;5034181;27;20438;-80
2022/09/24 02:46:01;;;;;;;0.50;0.50;;;13.80;99.90;;;;;;5037015;27;20051;-81
2022/09/24 02:48:27;;;;;;;0.50;0.50;;;13.70;99.90;;;;;;5011066;27;20051;-82
2022/09/24 02:50:53;;;;;;;0.50;0.50;;;13.80;99.90;;;;;;5009711;27;20096;-82
2022/09/24 02:53:19;;;;;;;0.50;0.50;;;13.70;99.90;;;;;;5010068;27;20059;-82
2022/09/24 02:55:44;;;;;;;0.50;0.50;;;13.70;99.90;;;;;;5028826;27;20666;-81
2022/09/24 02:58:11;;;;;;;0.50;0.50;;;13.70;99.90;;;;;;5008239;27;20043;-81
2022/09/24 03:00:37;;;;;;;0.40;0.40;;;13.70;99.90;;;;;;5026372;27;20192;-80
2022/09/24 03:03:03;;;;;;;0.40;0.40;;;13.70;99.90;;;;;;5002350;28;20488;-81
2022/09/24 03:05:29;;;;;;;0.50;0.50;;;13.70;99.90;;;;;;4993374;27;20035;-81
2022/09/24 03:07:56;;;;;;;0.50;0.50;;;13.70;99.90;;;;;;5028861;27;20039;-82
2022/09/24 03:10:22;;;;;;;0.43;0.43;;;13.70;99.90;;;;;;5024924;27;20039;-81
2022/09/24 03:12:48;;;;;;;0.50;0.50;;;13.70;99.90;;;;;;5004463;28;20096;-81
2022/09/24 03:15:15;;;;;;;0.50;0.50;;;13.70;99.90;;;;;;5014019;27;20046;-81
2022/09/24 03:17:40;;;;;;;0.50;0.50;;;13.70;99.90;;;;;;5013320;27;20347;-81
2022/09/24 03:20:06;;;;;;;0.50;0.50;;;13.70;99.90;;;;;;5008632;28;20500;-81
2022/09/24 03:22:32;;;;;;;0.50;0.50;;;13.70;99.90;;;;;;5025182;27;20554;-81
2022/09/24 03:24:58;;;;;;;0.50;0.50;;;13.70;99.90;;;;;;5024696;27;21114;-82
2022/09/24 03:27:24;;;;;;;0.50;0.50;;;13.70;99.90;;;;;;5015520;27;20600;-81
2022/09/24 03:32:34;;;;;;;0.50;0.50;;;13.80;99.90;;;;;;5005058;27;20087;-81
2022/09/24 03:35:00;;;;;;;0.50;0.50;;;13.70;99.90;;;;;;5022051;27;20047;-81
2022/09/24 03:37:26;;;;;;;0.50;0.50;;;13.70;99.90;;;;;;5016425;27;20537;-81
2022/09/24 03:39:52;;;;;;;0.50;0.50;;;13.70;99.90;;;;;;5005025;28;20162;-81
2022/09/24 03:42:18;;;;;;;0.50;0.50;;;13.70;99.90;;;;;;5024015;27;20926;-81
2022/09/24 03:44:44;;;;;;;0.50;0.50;;;13.70;99.90;;;;;;5023334;27;20675;-81
2022/09/24 03:47:10;;;;;;;0.50;0.50;;;13.70;99.90;;;;;;5026112;27;20749;-80
2022/09/24 03:49:35;;;;;;;0.40;0.40;;;13.80;99.90;;;;;;5006851;28;20052;-81
2022/09/24 03:52:01;;;;;;;0.50;0.50;;;13.70;99.90;;;;;;5021645;27;20590;-81
2022/09/24 03:54:27;;;;;;;0.50;0.50;;;13.70;99.90;;;;;;5026336;27;20039;-81
2022/09/24 03:56:53;;;;;;;0.40;0.40;;;13.70;99.90;;;;;;4999222;27;20075;-81
2022/09/24 03:59:19;;;;;;;0.50;0.50;;;13.70;99.90;;;;;;5033312;27;20108;-81
2022/09/24 04:01:45;;;;;;;0.50;0.50;;;13.70;99.90;;;;;;5034693;28;20051;-81
2022/09/24 04:04:14;;;;;;;0.50;0.50;;;13.60;99.90;;;;;;5039132;27;20924;-81
2022/09/24 04:06:40;;;;;;;0.50;0.50;;;13.60;99.90;;;;;;5006596;28;20082;-81
2022/09/24 04:09:06;;;;;;;0.50;0.50;;;13.70;99.90;;;;;;5031390;27;21129;-81
2022/09/24 04:11:34;;;;;;;0.50;0.50;;;13.70;99.90;;;;;;5023558;28;20055;-81
2022/09/24 04:14:00;;;;;;;0.50;0.50;;;13.60;99.90;;;;;;5032557;27;20097;-81
2022/09/24 04:16:26;;;;;;;0.40;0.40;;;13.70;99.90;;;;;;5036815;27;20046;-81
2022/09/24 04:18:54;;;;;;;0.50;0.50;;;13.70;99.90;;;;;;5022668;27;20043;-82
2022/09/24 04:21:22;;;;;;;6.10;5.57;;;13.70;99.90;;;;;;5012842;28;20227;-80
2022/09/24 04:23:48;;;;;;;0.50;0.50;;;13.70;99.90;;;;;;5025000;27;20565;-80
2022/09/24 04:26:14;;;;;;;0.50;0.50;;;13.70;99.90;;;;;;5037040;27;20108;-80
2022/09/24 04:28:40;;;;;;;0.40;0.40;;;13.70;99.90;;;;;;5025577;27;20032;-80
2022/09/24 04:31:06;;;;;;;0.50;0.50;;;13.70;99.90;;;;;;5008583;28;20055;-80
2022/09/24 04:33:32;;;;;;;0.50;0.50;;;13.80;99.90;;;;;;5021188;27;20595;-80
2022/09/24 04:35:58;;;;;;;0.50;0.50;;;13.80;99.90;;;;;;5027317;27;20092;-80
2022/09/24 04:38:23;;;;;;;0.50;0.50;;;13.80;99.90;;;;;;5032266;27;20054;-81
2022/09/24 04:40:49;;;;;;;0.50;0.50;;;13.80;99.90;;;;;;5020306;28;20043;-81
2022/09/24 04:43:17;;;;;;;0.50;0.50;;;13.80;99.90;;;;;;4998680;27;20058;-81
2022/09/24 04:45:45;;;;;;;0.50;0.50;;;13.80;99.90;;;;;;5002843;27;20579;-81
2022/09/24 04:48:11;;;;;;;0.50;0.50;;;13.80;99.90;;;;;;5004396;28;20066;-80
2022/09/24 04:50:37;;;;;;;0.40;0.40;;;13.80;99.90;;;;;;4993339;27;20487;-80
2022/09/24 04:53:03;;;;;;;0.50;0.50;;;13.80;99.90;;;;;;5003164;27;20080;-80
2022/09/24 04:55:30;;;;;;;0.40;0.40;;;13.90;99.90;;;;;;5007846;28;20401;-79
2022/09/24 04:57:57;;;;;;;0.50;0.50;;;13.80;99.90;;;;;;5006782;27;20878;-80
2022/09/24 05:00:24;;;;;;;0.50;0.50;;;13.80;99.90;;;;;;5008989;27;20044;-79
2022/09/24 05:03:02;;;;;;;0.50;0.50;;;13.80;99.90;;;;;;5009271;27;20456;-80
2022/09/24 05:05:28;;;;;;;0.50;0.50;;;13.90;99.90;;;;;;5010735;28;21017;-80
2022/09/24 05:07:57;;;;;;;0.50;0.50;;;13.90;99.90;;;;;;5007782;27;20052;-80
2022/09/24 05:10:27;;;;;;;0.50;0.50;;;13.80;99.90;;;;;;5010420;27;20047;-80
2022/09/24 05:12:53;;;;;;;0.50;0.50;;;13.90;99.90;;;;;;5013052;28;20093;-80
2022/09/24 05:15:20;;;;;;;0.50;0.50;;;13.80;99.90;;;;;;5011727;28;20154;-80
2022/09/24 05:18:05;;;;;;;0.50;0.50;;;13.80;99.90;;;;;;5011410;27;20131;-81
2022/09/24 05:20:31;;;;;;;0.50;0.50;;;13.80;99.90;;;;;;5007687;27;20348;-81
2022/09/24 05:22:57;;;;;;;0.47;0.47;;;13.80;99.90;;;;;;5008831;27;20493;-81
2022/09/24 05:25:23;;;;;;;0.50;0.50;;;13.80;99.90;;;;;;5005507;27;20047;-80
2022/09/24 05:27:51;;;;;;;0.50;0.50;;;13.80;99.90;;;;;;5008159;27;20062;-81
2022/09/24 05:30:19;;;;;;;0.50;0.50;;;13.80;99.90;;;;;;5012753;27;20055;-81
2022/09/24 05:32:48;;;;;;;0.50;0.50;;;13.80;99.90;;;;;;5001767;28;21237;-81
2022/09/24 05:35:14;;;;;;;0.50;0.50;;;13.80;99.90;;;;;;5010747;28;20122;-80
2022/09/24 05:37:40;;;;;;;0.50;0.50;;;13.90;99.90;;;;;;5006142;27;20628;-80
2022/09/24 05:42:58;;;;;;;0.40;0.40;;;13.80;99.90;;;;;;5010909;27;20168;-80
2022/09/24 05:45:24;;;;;;;0.40;0.40;;;13.80;99.90;;;;;;5009688;27;20071;-81
2022/09/24 05:47:50;;;;;;;0.50;0.50;;;13.90;99.90;;;;;;5028573;27;20051;-81
2022/09/24 05:50:16;;;;;;;0.50;0.50;;;13.80;99.90;;;;;;5035917;27;20112;-82
2022/09/24 05:52:42;;;;;;;0.45;0.45;;;13.90;99.90;;;;;;5029993;27;20055;-81
2022/09/24 05:55:09;;;;;;;0.50;0.50;;;13.80;99.90;;;;;;5026626;27;20051;-81
2022/09/24 05:57:35;;;;;;;0.40;0.40;;;13.80;99.90;;;;;;5007866;27;20476;-81
2022/09/24 06:00:02;;;;;;;0.40;0.40;;;13.90;99.90;;;;;;5027042;27;20120;-80
2022/09/24 06:02:28;;;;;;;0.50;0.50;;;13.90;99.90;;;;;;5025661;27;20703;-81
2022/09/24 06:04:54;;;;;;;0.50;0.50;;;13.80;99.90;;;;;;5005895;27;20660;-82
2022/09/24 06:07:20;;;;;;;0.40;0.40;;;13.90;99.90;;;;;;5002714;27;20059;-81
2022/09/24 06:09:46;;;;;;;0.40;0.40;;;13.80;99.90;;;;;;5022979;27;20243;-81
2022/09/24 06:12:13;;;;;;;0.40;0.40;;;13.80;99.90;;;;;;5009590;27;20437;-81
2022/09/24 06:14:41;;;;;;;0.50;0.50;;;13.80;99.90;;;;;;5010936;27;20039;-82
2022/09/24 06:17:08;;;;;;;0.50;0.50;;;13.90;99.90;;;;;;4997466;27;20044;-81
2022/09/24 06:19:34;;;;;;;0.40;0.40;;;13.90;99.90;;;;;;5028086;27;20051;-80
2022/09/24 06:22:00;;;;;;;0.45;0.45;;;13.90;99.90;;;;;;5023404;27;20071;-80
2022/09/24 06:24:26;;;;;;;0.40;0.40;;;13.90;99.90;;;;;;5025664;27;20079;-80
2022/09/24 06:26:52;;;;;;;0.40;0.40;;;13.90;99.90;;;;;;5035512;27;20061;-81
2022/09/24 06:29:18;;;;;;;0.50;0.50;;;13.90;99.90;;;;;;5031513;27;20051;-81
2022/09/24 06:31:44;;;;;;;0.40;0.40;;;13.90;99.90;;;;;;5016492;27;20123;-82
2022/09/24 06:34:10;;;;;;;0.50;0.50;;;13.90;99.90;;;;;;5035159;27;20180;-80
2022/09/24 06:36:36;;;;;;;0.50;0.50;;;14.00;99.90;;;;;;5027543;27;20090;-79
2022/09/24 06:39:02;;;;;;;0.50;0.50;;;13.90;99.90;;;;;;5032776;27;20803;-78
2022/09/24 06:41:28;;;;;;;0.50;0.50;;;13.90;99.90;;;;;;5029609;27;20040;-81
2022/09/24 06:43:54;;;;;;;0.50;0.50;;;14.00;99.90;;;;;;5011151;27;20506;-81
2022/09/24 06:46:22;;;;;;;0.50;0.50;;;14.00;99.90;;;;;;5005638;27;20881;-79
2022/09/24 06:48:48;;;;;;;0.50;0.50;;;14.00;99.90;;;;;;5005185;28;20058;-81
2022/09/24 06:51:14;;;;;;;0.40;0.40;;;14.00;99.90;;;;;;5014150;27;20829;-80
2022/09/24 06:53:40;;;;;;;0.50;0.50;;;14.00;99.90;;;;;;5027349;27;20050;-80
2022/09/24 06:56:06;;;;;;;0.50;0.50;;;14.10;99.90;;;;;;5013918;28;20051;-80
2022/09/24 06:58:32;;;;;;;0.50;0.50;;;14.10;99.90;;;;;;5005269;27;20057;-79
2022/09/24 07:01:01;;;;;;;0.50;0.50;;;14.20;99.90;;;;;;5031490;27;20045;-81
2022/09/24 07:03:32;;;;;;;0.40;0.40;;;14.10;99.90;;;;;;5009194;27;20058;-80
2022/09/24 07:06:03;;;;;;;0.50;0.50;;;14.20;99.90;;;;;;5008076;28;20210;-81
2022/09/24 07:08:29;;;;;;;0.40;0.40;;;14.10;99.90;;;;;;5004631;27;20558;-78
2022/09/24 07:10:55;;;;;;;0.43;0.43;;;14.20;99.90;;;;;;5012023;27;20217;-81
2022/09/24 07:13:21;;;;;;;0.50;0.50;;;14.30;99.90;;;;;;5009651;27;20346;-81
2022/09/24 07:15:49;;;;;;;0.40;0.40;;;14.30;99.90;;;;;;5003024;28;20161;-81
2022/09/24 07:18:16;;;;;;;0.50;0.50;;;14.30;99.90;;;;;;5011060;27;20410;-80
2022/09/24 07:20:42;;;;;;;0.50;0.50;;;14.40;99.90;;;;;;4990645;27;20242;-78
2022/09/24 07:23:10;;;;;;;0.50;0.50;;;14.40;99.90;;;;;;5010336;27;20231;-81
2022/09/24 07:25:37;;;;;;;0.43;0.43;;;14.50;99.90;;;;;;5011596;27;20559;-80
2022/09/24 07:28:05;;;;;;;0.50;0.50;;;14.60;99.90;;;;;;5015228;27;20054;-81
2022/09/24 07:30:32;;;;;;;0.50;0.50;;;14.60;99.90;;;;;;5005398;28;20456;-81
2022/09/24 07:32:59;;;;;;;0.50;0.50;;;14.60;99.90;;;;;;5004617;27;20053;-80
2022/09/24 07:35:25;;;;;;;0.40;0.40;;;14.60;99.90;;;;;;5027812;27;20054;-80
2022/09/24 07:38:03;;;;;;;0.50;0.50;;;14.60;99.90;;;;;;5003764;28;20055;-81
2022/09/24 07:40:30;;;;;;;0.40;0.40;;;14.70;99.90;;;;;;5012895;28;20512;-80
2022/09/24 07:42:57;;;;;;;0.40;0.40;;;14.60;99.90;;;;;;5012122;28;20043;-81
2022/09/24 07:45:26;;;;;;;0.50;0.50;;;14.60;99.90;;;;;;5022639;27;20819;-80
2022/09/24 07:48:00;;;;;;;0.50;0.50;;;14.60;99.90;;;;;;5023178;27;20420;-79
2022/09/24 07:50:29;;;;;;;0.40;0.40;;;14.60;99.90;;;;;;5028494;27;20542;-80
2022/09/24 07:52:55;;;;;;;0.50;0.50;;;14.60;99.90;;;;;;5028565;27;20047;-80
2022/09/24 07:55:22;;;;;;;0.45;0.45;;;14.60;99.90;;;;;;5026146;27;20043;-81
2022/09/24 07:57:50;;;;;;;0.50;0.50;;;14.70;99.90;;;;;;5034851;27;20126;-80
2022/09/24 08:00:18;;;;;;;0.40;0.40;;;14.70;99.90;;;;;;5027402;27;20544;-80
2022/09/24 08:02:45;;;;;;;0.50;0.50;;;14.60;99.90;;;;;;5012400;27;20130;-80
2022/09/24 08:05:14;;;;;;;0.40;0.40;;;14.60;99.90;;;;;;4998300;28;20778;-81
2022/09/24 08:07:40;;;;;;;0.43;0.43;;;14.60;99.90;;;;;;5009099;27;20392;-80
2022/09/24 08:10:07;;;;;;;0.40;0.40;;;14.70;99.90;;;;;;5029144;27;20567;-81
2022/09/24 08:12:33;;;;;;;0.40;0.40;;;14.70;99.90;;;;;;5011721;28;20604;-80
2022/09/24 08:14:59;;;;;;;0.50;0.50;;;14.70;99.90;;;;;;5009871;28;20060;-80
2022/09/24 08:17:25;;;;;;;0.40;0.40;;;14.80;99.90;;;;;;5028717;27;20500;-80
2022/09/24 08:19:55;;;;;;;0.40;0.40;;;14.80;99.90;;;;;;5030196;27;20181;-80
2022/09/24 08:22:23;;;;;;;0.40;0.40;;;14.80;99.90;;;;;;5028634;27;20048;-81
2022/09/24 08:24:49;;;;;;;0.40;0.40;;;14.80;99.90;;;;;;5026288;27;20110;-82
2022/09/24 08:27:16;;;;;;;0.50;0.50;;;14.90;99.90;;;;;;4985765;27;20271;-81
2022/09/24 08:29:42;;;;;;;0.40;0.40;;;14.80;99.90;;;;;;5019381;27;20050;-81
2022/09/24 08:32:08;;;;;;;0.40;0.40;;;14.80;99.90;;;;;;5021998;27;20043;-82
2022/09/24 08:34:37;;;;;;;0.43;0.43;;;14.90;99.90;;;;;;5026510;27;20042;-82
2022/09/24 08:37:06;;;;;;;0.50;0.50;;;14.90;99.90;;;;;;5003861;27;20047;-83
2022/09/24 08:39:33;;;;;;;0.40;0.40;;;14.90;99.90;;;;;;5010671;27;20564;-83
2022/09/24 08:42:05;;;;;;;0.50;0.50;;;14.90;99.90;;;;;;5007436;27;20452;-81
2022/09/24 08:47:44;;;;;;;0.43;0.43;;;14.90;99.90;;;;;;5027469;27;20055;-82
2022/09/24 08:50:18;;;;;;;0.45;0.45;;;14.90;99.90;;;;;;5025607;27;20047;-80
2022/09/24 08:52:53;;;;;;;0.40;0.40;;;14.90;99.90;;;;;;5003428;27;20050;-81
2022/09/24 08:55:34;;;;;;;0.50;0.50;;;14.80;99.90;;;;;;5020605;27;20039;-81
2022/09/24 08:58:09;;;;;;;0.40;0.40;;;14.80;99.90;;;;;;4989496;27;20242;-82
2022/09/24 09:00:47;;;;;;;0.40;0.40;;;14.80;99.90;;;;;;5010884;27;20585;-83
2022/09/24 09:03:29;;;;;;;0.40;0.40;;;14.80;99.90;;;;;;5009150;27;20062;-85
2022/09/24 09:06:01;;;;;;;0.40;0.40;;;14.80;99.90;;;;;;5011847;27;20504;-85
2022/09/24 09:08:55;;;;;;;0.50;0.50;;;14.80;99.90;;;;;;4986241;27;20043;-86
2022/09/24 09:11:27;;;;;;;0.40;0.40;;;14.80;99.90;;;;;;5024736;27;20047;-86
2022/09/24 09:14:18;;;;;;;0.50;0.50;;;14.90;99.90;;;;;;5020608;27;20469;-87
2022/09/24 09:16:50;;;;;;;0.40;0.40;;;14.90;99.90;;;;;;5006273;27;20142;-85
2022/09/24 09:19:17;;;;;;;0.40;0.40;;;15.00;99.90;;;;;;5019219;27;20089;-87
2022/09/24 09:21:52;;;;;;;0.40;0.40;;;15.00;99.90;;;;;;4983348;27;20047;-89
2022/09/24 09:24:23;;;;;;;0.50;0.50;;;15.10;99.90;;;;;;5032235;27;20051;-89
2022/09/24 09:26:54;;;;;;;0.50;0.50;;;15.10;99.90;;;;;;5009532;27;20080;-89
2022/09/24 09:29:26;;;;;;;0.50;0.50;;;15.10;99.90;;;;;;5024937;27;20043;-88
2022/09/24 09:32:16;;;;;;;0.50;0.50;;;15.00;99.90;;;;;;5005136;27;20546;-88
2022/09/24 09:35:02;;;;;;;0.40;0.40;;;15.10;99.90;;;;;;4997276;27;20047;-86
2022/09/24 09:41:19;;;;;;;0.40;0.40;;;15.00;99.90;;;;;;5018243;27;20113;-86
2022/09/24 09:43:45;;;;;;;;;;;15.00;99.90;;;;;;5007088;27;20126;-86
2022/09/24 09:46:17;;;;;;;0.50;0.50;;;15.10;99.90;;;;;;5019471;27;19923;-92
2022/09/24 09:48:46;;;;;;;0.50;0.50;;;15.10;99.90;;;;;;5003294;27;20050;-87
2022/09/24 09:51:25;;;;;;;0.43;0.43;;;15.10;99.90;;;;;;5020777;27;20047;-86
2022/09/24 09:53:59;;;;;;;0.47;0.47;;;15.10;99.90;;;;;;4995779;27;20274;-86
2022/09/24 09:56:33;;;;;;;0.50;0.50;;;15.20;99.90;;;;;;5007930;27;20307;-86
2022/09/24 09:59:05;;;;;;;0.40;0.40;;;15.30;99.90;;;;;;4999178;27;20744;-85
2022/09/24 10:01:34;;;;;;;0.40;0.40;;;15.20;99.90;;;;;;4997623;27;20051;-86
2022/09/24 10:04:03;;;;;;;0.40;0.40;;;15.40;99.90;;;;;;5009845;27;20666;-86
2022/09/24 10:06:32;;;;;;;0.40;0.40;;;15.40;99.90;;;;;;5033072;27;20048;-86
2022/09/24 10:09:11;;;;;;;0.40;0.40;;;15.60;99.90;;;;;;5024642;27;20043;-86
2022/09/24 10:11:37;;;;;;;0.50;0.50;;;15.60;99.90;;;;;;5010232;27;20288;-86
2022/09/24 10:14:05;;;;;;;0.40;0.40;;;15.70;99.90;;;;;;5020783;27;20517;-83
2022/09/24 10:16:39;;;;;;;0.50;0.50;;;15.70;99.90;;;;;;5011435;27;20126;-85
2022/09/24 10:19:24;;;;;;;0.40;0.40;;;15.70;99.90;;;;;;4998209;27;20079;-84
2022/09/24 10:21:52;;;;;;;0.40;0.40;;;15.70;99.90;;;;;;5006765;27;20043;-84
2022/09/24 10:24:24;;;;;;;0.50;0.50;;;15.70;99.90;;;;;;4998759;27;20054;-85
2022/09/24 10:26:50;;;;;;;0.40;0.40;;;15.60;99.90;;;;;;5000602;27;20411;-84
2022/09/24 10:32:19;;;;;;;0.50;0.50;;;15.50;99.90;;;;;;5004254;28;20271;-83
2022/09/24 10:34:59;;;;;;;0.40;0.40;;;15.50;99.90;;;;;;5008434;28;20063;-84
2022/09/24 10:37:26;;;;;;;0.40;0.40;;;15.50;99.90;;;;;;5012669;27;20450;-86
2022/09/24 10:40:30;;;;;;;0.43;0.43;;;15.50;99.90;;;;;;5010402;27;20835;-88
2022/09/24 10:42:58;;;;;;;0.40;0.40;;;15.40;99.90;;;;;;4930188;28;20509;-90
2022/09/24 10:45:53;;;;;;;0.50;0.50;;;15.50;99.90;;;;;;5007990;27;20649;-89
2022/09/24 10:48:53;;;;;;;0.40;0.40;;;15.50;99.90;;;;;;4972562;27;20074;-89
2022/09/24 10:51:44;;;;;;;0.45;0.45;;;15.50;99.90;;;;;;4981630;27;20555;-88
2022/09/24 10:54:37;;;;;;;0.40;0.40;;;15.50;99.90;;;;;;5001637;27;20826;-88
2022/09/24 10:57:30;;;;;;;0.50;0.50;;;15.60;99.90;;;;;;5008550;27;20072;-89
2022/09/24 11:00:22;;;;;;;0.40;0.40;;;15.60;99.90;;;;;;5008917;27;20503;-88
2022/09/24 11:03:27;;;;;;;0.40;0.40;;;15.70;99.90;;;;;;5031857;27;20279;-88
2022/09/24 11:06:00;;;;;;;0.40;0.40;;;15.70;99.90;;;;;;5013067;28;21629;-86
2022/09/24 11:08:38;;;;;;;0.50;0.50;;;15.70;99.90;;;;;;5011472;28;20090;-88
2022/09/24 11:11:27;;;;;;;0.40;0.40;;;15.80;99.90;;;;;;5010532;27;20895;-86
2022/09/24 11:14:04;;;;;;;0.40;0.40;;;15.80;99.90;;;;;;5006283;27;20434;-88
2022/09/24 11:17:03;;;;;;;0.45;0.45;;;15.80;99.90;;;;;;4998651;28;20644;-85
2022/09/24 11:19:32;;;;;;;0.40;0.40;;;15.80;99.90;;;;;;5011828;28;20056;-85
2022/09/24 11:22:47;;;;;;;0.40;0.40;;;15.70;99.90;;;;;;4993820;27;20049;-82
2022/09/24 11:25:25;;;;;;;0.40;0.40;;;15.70;99.90;;;;;;4990437;28;20941;-85
2022/09/24 11:28:06;;;;;;;0.40;0.40;;;15.60;99.90;;;;;;5006785;28;21069;-85
2022/09/24 11:30:55;;;;;;;0.50;0.50;;;15.50;99.90;;;;;;5012339;28;20154;-86
2022/09/24 11:33:54;;;;;;;0.50;0.50;;;15.70;99.90;;;;;;5003559;27;20216;-85
2022/09/24 11:36:20;;;;;;;0.40;0.40;;;15.80;99.90;;;;;;5003610;27;20971;-84
2022/09/24 11:38:56;;;;;;;0.40;0.40;;;15.80;99.90;;;;;;5013774;28;21137;-84
2022/09/24 11:41:54;;;;;;;0.40;0.40;;;16.00;99.90;;;;;;4994778;28;20301;-84
2022/09/24 11:44:36;;;;;;;0.40;0.40;;;15.90;99.90;;;;;;5028252;28;20059;-82
2022/09/24 11:47:13;;;;;;;0.40;0.40;;;15.90;99.90;;;;;;5006618;28;20074;-85
2022/09/24 11:50:06;;;;;;;0.40;0.40;;;15.90;99.90;;;;;;5027014;28;20920;-85
2022/09/24 11:52:44;;;;;;;0.40;0.40;;;15.90;99.90;;;;;;5012644;28;20562;-82
2022/09/24 11:55:17;;;;;;;0.40;0.40;;;16.00;99.90;;;;;;5010802;27;20062;-82
2022/09/24 11:57:52;;;;;;;0.40;0.40;;;16.10;99.90;;;;;;5028022;27;20062;-83
2022/09/24 12:00:20;;;;;;;0.40;0.40;;;16.30;99.90;;;;;;5013979;27;20074;-82
2022/09/24 12:02:55;;;;;;;0.40;0.40;;;16.00;99.90;;;;;;5015422;27;20051;-83
2022/09/24 12:05:24;;;;;;;0.40;0.40;;;16.10;99.90;;;;;;5011527;27;20049;-82
2022/09/24 12:08:26;;;;;;;0.40;0.40;;;16.10;99.90;;;;;;5022458;27;20706;-86
2022/09/24 12:11:05;;;;;;;0.40;0.40;;;16.00;99.90;;;;;;5019476;27;20055;-82
2022/09/24 12:13:40;;;;;;;0.40;0.40;;;15.80;99.90;;;;;;5036643;27;20051;-83
2022/09/24 12:16:12;;;;;;;0.50;0.50;;;16.00;99.90;;;;;;5023287;27;20043;-84
2022/09/24 12:18:41;;;;;;;0.40;0.40;;;16.00;99.90;;;;;;5009125;27;20043;-83
2022/09/24 12:21:11;;;;;;;0.40;0.40;;;15.90;99.90;;;;;;5009498;27;20051;-82
2022/09/24 12:23:45;;;;;;;0.40;0.40;;;15.80;99.90;;;;;;5013093;27;20055;-83
2022/09/24 12:26:15;;;;;;;0.50;0.50;;;15.90;99.90;;;;;;4998318;27;20056;-83
2022/09/24 12:35:27;;;;;;;0.40;0.40;;;15.90;99.90;;;;;;5007593;27;20509;-83
2022/09/24 12:38:16;;;;;;;0.40;0.40;;;15.80;99.90;;;;;;5030016;27;20694;-83
2022/09/24 12:40:55;;;;;;;0.40;0.40;;;15.70;99.90;;;;;;5015621;27;20408;-83
2022/09/24 12:43:52;;;;;;;0.40;0.40;;;15.60;99.90;;;;;;4999020;27;20579;-82
2022/09/24 12:46:48;;;;;;;0.40;0.40;;;15.60;99.90;;;;;;5038045;27;20047;-82
2022/09/24 12:49:33;;;;;;;0.50;0.50;;;15.70;99.90;;;;;;5054143;27;20043;-82
2022/09/24 12:52:15;;;;;;;0.47;0.47;;;15.80;99.90;;;;;;5067139;27;20527;-82
2022/09/24 12:54:43;;;;;;;0.40;0.40;;;15.70;99.90;;;;;;5044052;27;20726;-82
2022/09/24 12:57:22;;;;;;;0.40;0.40;;;15.90;99.90;;;;;;5029878;27;20047;-82
2022/09/24 12:59:57;;;;;;;0.40;0.40;;;16.10;99.90;;;;;;5011623;27;20043;-81
2022/09/24 13:02:42;;;;;;;0.50;0.50;;;16.00;99.90;;;;;;5025432;27;20058;-82
2022/09/24 13:05:26;;;;;;;0.40;0.40;;;16.20;99.90;;;;;;5025986;27;20043;-82
2022/09/24 13:08:22;;;;;;;0.50;0.50;;;16.30;99.90;;;;;;5019786;27;20115;-82
2022/09/24 13:10:59;;;;;;;0.40;0.40;;;16.30;99.90;;;;;;5040337;27;20524;-81
2022/09/24 13:13:32;;;;;;;0.50;0.50;;;16.20;99.90;;;;;;5020639;27;20104;-82
2022/09/24 13:16:17;;;;;;;0.40;0.40;;;16.10;99.90;;;;;;5012127;27;20552;-83
2022/09/24 13:18:54;;;;;;;0.50;0.50;;;16.00;99.90;;;;;;5048550;27;20078;-82
2022/09/24 13:21:24;;;;;;;0.40;0.40;;;15.90;99.90;;;;;;5049622;27;20040;-81
2022/09/24 13:23:51;;;;;;;0.50;0.50;;;15.90;99.90;;;;;;5045192;27;20084;-81
2022/09/24 13:26:23;;;;;;;0.43;0.43;;;15.90;99.90;;;;;;5005761;27;20051;-82
2022/09/24 13:28:56;;;;;;;0.40;0.40;;;15.90;99.90;;;;;;5041795;27;20046;-82
2022/09/24 13:31:32;;;;;;;0.50;0.50;;;15.90;99.90;;;;;;5042208;27;20088;-79
2022/09/24 13:34:08;;;;;;;0.43;0.43;;;16.00;99.90;;;;;;5025365;27;20047;-82
2022/09/24 13:36:56;;;;;;;0.50;0.50;;;15.90;99.90;;;;;;5021633;27;20035;-82
2022/09/24 13:39:45;;;;;;;0.50;0.50;;;16.10;99.90;;;;;;5032004;27;20047;-82